sensor_id;sensor_type;location;lat;lon;timestamp;pressure;altitude;pressure_sealevel;temperature;humidity
72925;BME280;61070;50.794;7.054;2023-06-22T00:01:01;100996.78;;;22.74;76.24
72925;BME280;61070;50.794;7.054;2023-06-22T00:03:26;100996.63;;;22.77;76.21
72925;BME280;61070;50.794;7.054;2023-06-22T00:05:52;100994.28;;;22.71;76.68
72925;BME280;61070;50.794;7.054;2023-06-22T00:08:18;100989.84;;;22.70;76.59
72925;BME280;61070;50.794;7.054;2023-06-22T00:10:45;100996.19;;;22.53;76.47
72925;BME280;61070;50.794;7.054;2023-06-22T00:13:11;100999.69;;;22.55;76.79
72925;BME280;61070;50.794;7.054;2023-06-22T00:15:38;100998.53;;;22.59;76.89
72925;BME280;61070;50.794;7.054;2023-06-22T00:18:06;101002.81;;;22.63;76.76
72925;BME280;61070;50.794;7.054;2023-06-22T00:20:31;101015.69;;;22.74;76.94
72925;BME280;61070;50.794;7.054;2023-06-22T00:22:58;101004.13;;;22.72;77.41
72925;BME280;61070;50.794;7.054;2023-06-22T00:25:24;101003.16;;;22.73;77.36
72925;BME280;61070;50.794;7.054;2023-06-22T00:27:49;100997.66;;;22.75;77.23
72925;BME280;61070;50.794;7.054;2023-06-22T00:30:16;100996.88;;;22.73;77.25
72925;BME280;61070;50.794;7.054;2023-06-22T00:32:42;100993.50;;;22.69;77.26
72925;BME280;61070;50.794;7.054;2023-06-22T00:35:08;101007.19;;;22.66;77.53
72925;BME280;61070;50.794;7.054;2023-06-22T00:37:34;101007.97;;;22.68;78.17
72925;BME280;61070;50.794;7.054;2023-06-22T00:40:01;101008.94;;;22.67;78.70
72925;BME280;61070;50.794;7.054;2023-06-22T00:42:26;101007.25;;;22.64;79.20
72925;BME280;61070;50.794;7.054;2023-06-22T00:44:51;101004.47;;;22.66;79.05
72925;BME280;61070;50.794;7.054;2023-06-22T00:47:17;101006.13;;;22.69;79.11
72925;BME280;61070;50.794;7.054;2023-06-22T00:49:44;101008.94;;;22.67;79.20
72925;BME280;61070;50.794;7.054;2023-06-22T00:52:10;101003.34;;;22.70;78.96
72925;BME280;61070;50.794;7.054;2023-06-22T00:54:42;101008.56;;;22.73;78.95
72925;BME280;61070;50.794;7.054;2023-06-22T00:57:12;101015.34;;;22.80;79.12
72925;BME280;61070;50.794;7.054;2023-06-22T00:59:37;101009.34;;;22.75;79.25
72925;BME280;61070;50.794;7.054;2023-06-22T01:02:04;101007.00;;;22.69;79.13
72925;BME280;61070;50.794;7.054;2023-06-22T01:04:37;101005.06;;;22.71;78.97
72925;BME280;61070;50.794;7.054;2023-06-22T01:09:37;100990.69;;;22.71;77.97
72925;BME280;61070;50.794;7.054;2023-06-22T01:12:09;100995.91;;;22.74;78.03
72925;BME280;61070;50.794;7.054;2023-06-22T01:14:41;100994.53;;;22.66;78.30
72925;BME280;61070;50.794;7.054;2023-06-22T01:17:08;100991.03;;;22.64;78.04
72925;BME280;61070;50.794;7.054;2023-06-22T01:19:46;100989.91;;;22.69;78.30
72925;BME280;61070;50.794;7.054;2023-06-22T01:22:15;100983.41;;;22.57;77.21
72925;BME280;61070;50.794;7.054;2023-06-22T01:24:44;100981.91;;;22.51;76.33
72925;BME280;61070;50.794;7.054;2023-06-22T01:29:50;100973.72;;;22.53;76.60
72925;BME280;61070;50.794;7.054;2023-06-22T01:32:16;100971.81;;;22.55;77.25
72925;BME280;61070;50.794;7.054;2023-06-22T01:34:43;100966.41;;;22.55;77.28
72925;BME280;61070;50.794;7.054;2023-06-22T01:37:09;100966.06;;;22.45;77.29
72925;BME280;61070;50.794;7.054;2023-06-22T01:39:34;100963.59;;;22.41;78.17
72925;BME280;61070;50.794;7.054;2023-06-22T01:42:01;100959.53;;;22.33;77.63
72925;BME280;61070;50.794;7.054;2023-06-22T01:44:27;100958.47;;;22.36;79.05
72925;BME280;61070;50.794;7.054;2023-06-22T01:46:53;100961.47;;;22.31;78.93
72925;BME280;61070;50.794;7.054;2023-06-22T01:49:19;100956.75;;;22.35;79.59
72925;BME280;61070;50.794;7.054;2023-06-22T01:51:45;100963.00;;;22.35;79.60
72925;BME280;61070;50.794;7.054;2023-06-22T01:54:10;100963.97;;;22.34;79.65
72925;BME280;61070;50.794;7.054;2023-06-22T01:56:36;100958.75;;;22.31;79.03
72925;BME280;61070;50.794;7.054;2023-06-22T02:02:09;100956.13;;;22.30;78.52
72925;BME280;61070;50.794;7.054;2023-06-22T02:04:41;100956.22;;;22.28;78.99
72925;BME280;61070;50.794;7.054;2023-06-22T02:07:12;100959.78;;;22.29;78.91
72925;BME280;61070;50.794;7.054;2023-06-22T02:09:43;100956.94;;;22.32;79.13
72925;BME280;61070;50.794;7.054;2023-06-22T02:12:11;100959.09;;;22.25;79.64
72925;BME280;61070;50.794;7.054;2023-06-22T02:14:38;100956.56;;;22.22;79.68
72925;BME280;61070;50.794;7.054;2023-06-22T02:17:04;100961.97;;;22.22;79.69
72925;BME280;61070;50.794;7.054;2023-06-22T02:19:36;100958.31;;;22.23;79.52
72925;BME280;61070;50.794;7.054;2023-06-22T02:22:01;100955.53;;;22.25;79.07
72925;BME280;61070;50.794;7.054;2023-06-22T02:24:26;100958.13;;;22.26;77.98
72925;BME280;61070;50.794;7.054;2023-06-22T02:26:52;100958.91;;;22.28;77.53
72925;BME280;61070;50.794;7.054;2023-06-22T02:29:17;100956.06;;;22.31;77.22
72925;BME280;61070;50.794;7.054;2023-06-22T02:31:43;100948.03;;;22.30;76.25
72925;BME280;61070;50.794;7.054;2023-06-22T02:34:08;100948.03;;;22.30;77.14
72925;BME280;61070;50.794;7.054;2023-06-22T02:36:33;100946.28;;;22.29;76.67
72925;BME280;61070;50.794;7.054;2023-06-22T02:38:59;100948.03;;;22.30;77.03
72925;BME280;61070;50.794;7.054;2023-06-22T02:41:26;100943.84;;;22.24;76.72
72925;BME280;61070;50.794;7.054;2023-06-22T02:43:52;100946.47;;;22.26;77.01
72925;BME280;61070;50.794;7.054;2023-06-22T02:46:17;100944.63;;;22.26;77.54
72925;BME280;61070;50.794;7.054;2023-06-22T02:48:42;100947.25;;;22.28;77.77
72925;BME280;61070;50.794;7.054;2023-06-22T02:51:08;100948.97;;;22.29;77.88
72925;BME280;61070;50.794;7.054;2023-06-22T02:53:34;100943.84;;;22.24;79.29
72925;BME280;61070;50.794;7.054;2023-06-22T02:56:03;100944.09;;;22.20;80.23
72925;BME280;61070;50.794;7.054;2023-06-22T02:58:31;100944.38;;;22.15;81.69
72925;BME280;61070;50.794;7.054;2023-06-22T03:00:58;100939.50;;;22.22;80.97
72925;BME280;61070;50.794;7.054;2023-06-22T03:03:29;100937.06;;;22.17;81.46
72925;BME280;61070;50.794;7.054;2023-06-22T03:05:54;100941.56;;;22.17;82.08
72925;BME280;61070;50.794;7.054;2023-06-22T03:08:20;100934.25;;;22.19;81.88
72925;BME280;61070;50.794;7.054;2023-06-22T03:10:45;100928.25;;;22.14;83.15
72925;BME280;61070;50.794;7.054;2023-06-22T03:13:10;100926.34;;;22.16;83.33
72925;BME280;61070;50.794;7.054;2023-06-22T03:15:35;100927.56;;;22.10;83.68
72925;BME280;61070;50.794;7.054;2023-06-22T03:18:01;100911.47;;;22.08;83.58
72925;BME280;61070;50.794;7.054;2023-06-22T03:20:26;100914.56;;;22.01;83.88
72925;BME280;61070;50.794;7.054;2023-06-22T03:22:58;100914.75;;;21.98;84.08
72925;BME280;61070;50.794;7.054;2023-06-22T03:25:23;100919.78;;;22.04;83.82
72925;BME280;61070;50.794;7.054;2023-06-22T03:27:48;100929.63;;;22.05;84.28
72925;BME280;61070;50.794;7.054;2023-06-22T03:30:14;100934.81;;;22.10;85.05
72925;BME280;61070;50.794;7.054;2023-06-22T03:32:39;100924.16;;;22.06;84.88
72925;BME280;61070;50.794;7.054;2023-06-22T03:35:05;100926.84;;;22.06;86.73
72925;BME280;61070;50.794;7.054;2023-06-22T03:37:31;100928.84;;;22.03;86.42
72925;BME280;61070;50.794;7.054;2023-06-22T03:39:56;100921.78;;;22.00;86.28
72925;BME280;61070;50.794;7.054;2023-06-22T03:42:22;100916.47;;;21.99;86.20
72925;BME280;61070;50.794;7.054;2023-06-22T03:44:47;100914.88;;;21.95;86.54
72925;BME280;61070;50.794;7.054;2023-06-22T03:47:13;100911.69;;;21.88;87.19
72925;BME280;61070;50.794;7.054;2023-06-22T03:49:38;100906.31;;;21.71;88.55
72925;BME280;61070;50.794;7.054;2023-06-22T03:52:04;100896.59;;;21.68;88.95
72925;BME280;61070;50.794;7.054;2023-06-22T03:54:30;100902.31;;;21.62;89.95
72925;BME280;61070;50.794;7.054;2023-06-22T03:56:59;100906.91;;;21.60;91.21
72925;BME280;61070;50.794;7.054;2023-06-22T03:59:24;100896.56;;;21.53;92.75
72925;BME280;61070;50.794;7.054;2023-06-22T04:01:50;100902.75;;;21.55;91.64
72925;BME280;61070;50.794;7.054;2023-06-22T04:04:16;100902.88;;;21.51;91.97
72925;BME280;61070;50.794;7.054;2023-06-22T04:06:42;100895.22;;;21.44;92.52
72925;BME280;61070;50.794;7.054;2023-06-22T04:09:07;100889.94;;;21.42;94.58
72925;BME280;61070;50.794;7.054;2023-06-22T04:11:32;100878.97;;;21.45;94.81
72925;BME280;61070;50.794;7.054;2023-06-22T04:13:58;100889.78;;;21.28;97.88
72925;BME280;61070;50.794;7.054;2023-06-22T04:16:23;100883.66;;;21.25;97.85
72925;BME280;61070;50.794;7.054;2023-06-22T04:18:48;100883.03;;;21.37;96.75
72925;BME280;61070;50.794;7.054;2023-06-22T04:21:14;100879.47;;;21.36;94.08
72925;BME280;61070;50.794;7.054;2023-06-22T04:23:39;100887.47;;;21.38;93.61
72925;BME280;61070;50.794;7.054;2023-06-22T04:26:04;100890.94;;;21.40;93.51
72925;BME280;61070;50.794;7.054;2023-06-22T04:28:30;100897.84;;;21.45;93.68
72925;BME280;61070;50.794;7.054;2023-06-22T04:31:01;100889.50;;;21.50;93.54
72925;BME280;61070;50.794;7.054;2023-06-22T04:33:27;100897.34;;;21.55;93.40
72925;BME280;61070;50.794;7.054;2023-06-22T04:35:54;100888.22;;;21.57;92.93
72925;BME280;61070;50.794;7.054;2023-06-22T04:38:22;100895.25;;;21.60;93.25
72925;BME280;61070;50.794;7.054;2023-06-22T04:40:47;100881.25;;;21.53;92.98
72925;BME280;61070;50.794;7.054;2023-06-22T04:43:13;100889.69;;;21.63;92.49
72925;BME280;61070;50.794;7.054;2023-06-22T04:45:38;100907.00;;;21.59;93.15
72925;BME280;61070;50.794;7.054;2023-06-22T04:48:04;100894.38;;;21.59;92.73
72925;BME280;61070;50.794;7.054;2023-06-22T04:50:30;100901.53;;;21.60;93.45
72925;BME280;61070;50.794;7.054;2023-06-22T04:52:55;100894.22;;;21.62;93.03
72925;BME280;61070;50.794;7.054;2023-06-22T04:55:20;100899.47;;;21.65;92.67
72925;BME280;61070;50.794;7.054;2023-06-22T04:57:46;100897.09;;;21.59;93.62
72925;BME280;61070;50.794;7.054;2023-06-22T05:02:43;100893.44;;;21.60;93.36
72925;BME280;61070;50.794;7.054;2023-06-22T05:05:08;100888.50;;;21.68;93.71
72925;BME280;61070;50.794;7.054;2023-06-22T05:07:34;100884.16;;;21.82;92.59
72925;BME280;61070;50.794;7.054;2023-06-22T05:10:01;100882.16;;;21.85;91.76
72925;BME280;61070;50.794;7.054;2023-06-22T05:12:28;100885.66;;;22.03;90.99
72925;BME280;61070;50.794;7.054;2023-06-22T05:14:54;100897.44;;;22.18;90.19
72925;BME280;61070;50.794;7.054;2023-06-22T05:17:19;100903.09;;;22.29;89.19
72925;BME280;61070;50.794;7.054;2023-06-22T05:19:45;100893.69;;;22.36;88.95
72925;BME280;61070;50.794;7.054;2023-06-22T05:22:14;100888.97;;;22.55;86.91
72925;BME280;61070;50.794;7.054;2023-06-22T05:24:40;100888.00;;;22.56;86.49
72925;BME280;61070;50.794;7.054;2023-06-22T05:27:05;100885.44;;;22.69;87.11
72925;BME280;61070;50.794;7.054;2023-06-22T05:29:31;100892.41;;;22.73;86.20
72925;BME280;61070;50.794;7.054;2023-06-22T05:31:56;100883.75;;;22.82;85.30
72925;BME280;61070;50.794;7.054;2023-06-22T05:34:21;100879.16;;;22.84;86.35
72925;BME280;61070;50.794;7.054;2023-06-22T05:36:46;100876.50;;;22.83;87.20
72925;BME280;61070;50.794;7.054;2023-06-22T05:39:13;100878.41;;;22.97;86.18
72925;BME280;61070;50.794;7.054;2023-06-22T05:41:38;100880.34;;;22.94;87.34
72925;BME280;61070;50.794;7.054;2023-06-22T05:44:04;100875.84;;;22.79;87.12
72925;BME280;61070;50.794;7.054;2023-06-22T05:46:29;100881.84;;;22.84;87.28
72925;BME280;61070;50.794;7.054;2023-06-22T05:48:54;100885.66;;;22.66;88.58
72925;BME280;61070;50.794;7.054;2023-06-22T05:51:20;100887.25;;;22.84;87.33
72925;BME280;61070;50.794;7.054;2023-06-22T05:53:45;100888.66;;;22.91;86.70
72925;BME280;61070;50.794;7.054;2023-06-22T05:56:14;100889.59;;;22.90;87.38
72925;BME280;61070;50.794;7.054;2023-06-22T05:58:40;100890.09;;;22.97;87.24
72925;BME280;61070;50.794;7.054;2023-06-22T06:01:05;100900.22;;;22.93;88.20
72925;BME280;61070;50.794;7.054;2023-06-22T06:03:30;100909.41;;;23.05;86.30
72925;BME280;61070;50.794;7.054;2023-06-22T06:05:56;100907.41;;;23.09;86.25
72925;BME280;61070;50.794;7.054;2023-06-22T06:08:21;100910.69;;;23.00;86.14
72925;BME280;61070;50.794;7.054;2023-06-22T06:10:46;100912.78;;;22.94;86.67
72925;BME280;61070;50.794;7.054;2023-06-22T06:13:12;100900.66;;;22.86;86.92
72925;BME280;61070;50.794;7.054;2023-06-22T06:15:37;100904.25;;;22.71;87.64
72925;BME280;61070;50.794;7.054;2023-06-22T06:18:03;100898.84;;;22.86;88.22
72925;BME280;61070;50.794;7.054;2023-06-22T06:20:30;100900.25;;;23.08;85.93
72925;BME280;61070;50.794;7.054;2023-06-22T06:22:56;100905.63;;;23.23;84.46
72925;BME280;61070;50.794;7.054;2023-06-22T06:25:21;100911.91;;;23.38;82.35
72925;BME280;61070;50.794;7.054;2023-06-22T06:27:47;100915.00;;;23.46;82.10
72925;BME280;61070;50.794;7.054;2023-06-22T06:30:14;100921.00;;;23.66;80.70
72925;BME280;61070;50.794;7.054;2023-06-22T06:32:41;100919.13;;;23.68;80.42
72925;BME280;61070;50.794;7.054;2023-06-22T06:35:08;100934.53;;;23.66;80.71
72925;BME280;61070;50.794;7.054;2023-06-22T06:37:38;100930.13;;;23.79;79.07
72925;BME280;61070;50.794;7.054;2023-06-22T06:40:05;100939.38;;;23.89;78.44
72925;BME280;61070;50.794;7.054;2023-06-22T06:42:33;100929.06;;;23.67;79.26
72925;BME280;61070;50.794;7.054;2023-06-22T06:44:58;100922.84;;;23.65;78.10
72925;BME280;61070;50.794;7.054;2023-06-22T06:47:23;100914.84;;;23.64;79.67
72925;BME280;61070;50.794;7.054;2023-06-22T06:49:49;100893.38;;;23.75;79.42
72925;BME280;61070;50.794;7.054;2023-06-22T06:52:14;100893.50;;;23.73;80.11
72925;BME280;61070;50.794;7.054;2023-06-22T06:54:39;100887.78;;;23.78;79.98
72925;BME280;61070;50.794;7.054;2023-06-22T06:57:06;100895.41;;;23.86;81.20
72925;BME280;61070;50.794;7.054;2023-06-22T06:59:31;100898.19;;;24.13;79.97
72925;BME280;61070;50.794;7.054;2023-06-22T07:01:56;100897.56;;;24.22;79.18
72925;BME280;61070;50.794;7.054;2023-06-22T07:04:22;100883.34;;;24.32;79.21
72925;BME280;61070;50.794;7.054;2023-06-22T07:06:47;100879.03;;;24.16;79.34
72925;BME280;61070;50.794;7.054;2023-06-22T07:09:13;100875.91;;;24.22;80.52
72925;BME280;61070;50.794;7.054;2023-06-22T07:11:38;100865.44;;;24.30;79.14
72925;BME280;61070;50.794;7.054;2023-06-22T07:14:03;100870.63;;;24.06;81.74
72925;BME280;61070;50.794;7.054;2023-06-22T07:16:29;100867.81;;;24.07;79.84
72925;BME280;61070;50.794;7.054;2023-06-22T07:18:55;100872.22;;;24.23;79.99
72925;BME280;61070;50.794;7.054;2023-06-22T07:21:20;100872.41;;;24.34;78.30
72925;BME280;61070;50.794;7.054;2023-06-22T07:23:46;100876.47;;;24.41;78.45
72925;BME280;61070;50.794;7.054;2023-06-22T07:26:11;100864.81;;;24.53;77.16
72925;BME280;61070;50.794;7.054;2023-06-22T07:28:38;100863.31;;;24.62;78.24
72925;BME280;61070;50.794;7.054;2023-06-22T07:31:05;100855.22;;;24.75;76.86
72925;BME280;61070;50.794;7.054;2023-06-22T07:33:31;100849.94;;;24.86;75.92
72925;BME280;61070;50.794;7.054;2023-06-22T07:35:56;100848.63;;;24.91;75.51
72925;BME280;61070;50.794;7.054;2023-06-22T07:38:21;100856.94;;;25.15;75.86
72925;BME280;61070;50.794;7.054;2023-06-22T07:40:47;100850.16;;;24.95;76.71
72925;BME280;61070;50.794;7.054;2023-06-22T07:43:12;100855.00;;;24.90;75.74
72925;BME280;61070;50.794;7.054;2023-06-22T07:45:38;100841.44;;;25.05;74.36
72925;BME280;61070;50.794;7.054;2023-06-22T07:48:05;100829.94;;;25.27;73.99
72925;BME280;61070;50.794;7.054;2023-06-22T07:50:30;100825.28;;;25.16;73.45
72925;BME280;61070;50.794;7.054;2023-06-22T07:52:56;100823.91;;;25.47;72.60
72925;BME280;61070;50.794;7.054;2023-06-22T07:55:21;100824.25;;;25.55;74.17
72925;BME280;61070;50.794;7.054;2023-06-22T07:57:48;100829.44;;;25.71;71.98
72925;BME280;61070;50.794;7.054;2023-06-22T08:00:14;100831.63;;;25.53;71.31
72925;BME280;61070;50.794;7.054;2023-06-22T08:02:42;100835.66;;;25.60;72.01
72925;BME280;61070;50.794;7.054;2023-06-22T08:05:10;100829.63;;;25.80;70.53
72925;BME280;61070;50.794;7.054;2023-06-22T08:07:37;100828.47;;;25.85;71.92
72925;BME280;61070;50.794;7.054;2023-06-22T08:10:03;100815.78;;;26.09;70.02
72925;BME280;61070;50.794;7.054;2023-06-22T08:12:29;100814.38;;;26.03;70.12
72925;BME280;61070;50.794;7.054;2023-06-22T08:14:54;100805.28;;;26.16;70.65
72925;BME280;61070;50.794;7.054;2023-06-22T08:17:19;100800.88;;;26.38;69.82
72925;BME280;61070;50.794;7.054;2023-06-22T08:19:44;100788.75;;;26.66;68.50
72925;BME280;61070;50.794;7.054;2023-06-22T08:22:10;100781.69;;;26.53;68.74
72925;BME280;61070;50.794;7.054;2023-06-22T08:24:35;100777.94;;;26.43;68.52
72925;BME280;61070;50.794;7.054;2023-06-22T08:27:00;100768.78;;;26.20;69.65
72925;BME280;61070;50.794;7.054;2023-06-22T08:29:26;100765.59;;;26.50;69.67
72925;BME280;61070;50.794;7.054;2023-06-22T08:31:51;100769.84;;;26.65;69.30
72925;BME280;61070;50.794;7.054;2023-06-22T08:34:16;100766.38;;;26.63;68.35
72925;BME280;61070;50.794;7.054;2023-06-22T08:36:46;100755.94;;;26.46;68.33
72925;BME280;61070;50.794;7.054;2023-06-22T08:39:13;100759.59;;;26.68;68.79
72925;BME280;61070;50.794;7.054;2023-06-22T08:41:39;100756.06;;;26.44;70.05
72925;BME280;61070;50.794;7.054;2023-06-22T08:44:04;100749.56;;;26.58;70.40
72925;BME280;61070;50.794;7.054;2023-06-22T08:46:30;100752.19;;;26.70;69.69
72925;BME280;61070;50.794;7.054;2023-06-22T08:48:57;100753.16;;;26.69;69.85
72925;BME280;61070;50.794;7.054;2023-06-22T08:51:23;100754.28;;;26.67;69.81
72925;BME280;61070;50.794;7.054;2023-06-22T08:53:48;100743.88;;;26.61;69.25
72925;BME280;61070;50.794;7.054;2023-06-22T08:56:14;100731.69;;;26.78;68.73
72925;BME280;61070;50.794;7.054;2023-06-22T08:58:39;100731.44;;;26.92;68.40
72925;BME280;61070;50.794;7.054;2023-06-22T09:01:04;100732.84;;;26.97;67.87
72925;BME280;61070;50.794;7.054;2023-06-22T09:03:30;100728.41;;;27.08;68.44
72925;BME280;61070;50.794;7.054;2023-06-22T09:05:55;100719.63;;;27.15;67.66
72925;BME280;61070;50.794;7.054;2023-06-22T09:08:20;100712.31;;;27.05;67.78
72925;BME280;61070;50.794;7.054;2023-06-22T09:10:46;100706.63;;;26.85;67.46
72925;BME280;61070;50.794;7.054;2023-06-22T09:13:11;100711.59;;;27.25;66.80
72925;BME280;61070;50.794;7.054;2023-06-22T09:15:36;100696.00;;;27.16;66.29
72925;BME280;61070;50.794;7.054;2023-06-22T09:18:02;100688.34;;;27.32;66.56
72925;BME280;61070;50.794;7.054;2023-06-22T09:20:27;100685.72;;;27.42;67.35
72925;BME280;61070;50.794;7.054;2023-06-22T09:22:52;100682.59;;;27.58;66.16
72925;BME280;61070;50.794;7.054;2023-06-22T09:25:18;100678.16;;;27.45;66.68
72925;BME280;61070;50.794;7.054;2023-06-22T09:27:46;100668.97;;;27.69;65.29
72925;BME280;61070;50.794;7.054;2023-06-22T09:30:11;100667.63;;;27.95;66.02
72925;BME280;61070;50.794;7.054;2023-06-22T09:32:36;100661.88;;;28.09;65.81
72925;BME280;61070;50.794;7.054;2023-06-22T09:35:04;100660.59;;;28.13;64.65
72925;BME280;61070;50.794;7.054;2023-06-22T09:37:31;100665.22;;;28.34;62.97
72925;BME280;61070;50.794;7.054;2023-06-22T09:39:56;100666.53;;;28.39;62.69
72925;BME280;61070;50.794;7.054;2023-06-22T09:42:21;100657.38;;;28.40;61.99
72925;BME280;61070;50.794;7.054;2023-06-22T09:44:46;100655.91;;;28.57;61.63
72925;BME280;61070;50.794;7.054;2023-06-22T09:47:12;100652.47;;;28.55;61.24
72925;BME280;61070;50.794;7.054;2023-06-22T09:49:37;100654.91;;;28.37;61.77
72925;BME280;61070;50.794;7.054;2023-06-22T09:52:02;100660.97;;;28.41;61.64
72925;BME280;61070;50.794;7.054;2023-06-22T09:54:28;100664.38;;;28.33;62.13
72925;BME280;61070;50.794;7.054;2023-06-22T09:56:53;100668.22;;;28.20;61.80
72925;BME280;61070;50.794;7.054;2023-06-22T09:59:18;100662.78;;;27.99;62.11
72925;BME280;61070;50.794;7.054;2023-06-22T10:01:44;100654.63;;;27.67;63.64
72925;BME280;61070;50.794;7.054;2023-06-22T10:04:09;100670.97;;;27.55;63.35
72925;BME280;61070;50.794;7.054;2023-06-22T10:06:34;100666.03;;;27.38;63.95
72925;BME280;61070;50.794;7.054;2023-06-22T10:08:59;100678.66;;;27.28;64.98
72925;BME280;61070;50.794;7.054;2023-06-22T10:11:25;100688.56;;;27.29;66.06
72925;BME280;61070;50.794;7.054;2023-06-22T10:13:54;100704.41;;;27.13;66.22
72925;BME280;61070;50.794;7.054;2023-06-22T10:16:19;100713.91;;;26.74;69.30
72925;BME280;61070;50.794;7.054;2023-06-22T10:18:45;100709.41;;;26.61;71.27
72925;BME280;61070;50.794;7.054;2023-06-22T10:21:10;100719.16;;;26.42;74.60
72925;BME280;61070;50.794;7.054;2023-06-22T10:23:35;100724.38;;;26.32;74.32
72925;BME280;61070;50.794;7.054;2023-06-22T10:26:01;100737.06;;;26.20;77.43
72925;BME280;61070;50.794;7.054;2023-06-22T10:28:26;100749.50;;;26.11;79.21
72925;BME280;61070;50.794;7.054;2023-06-22T10:30:51;100755.16;;;26.08;80.03
72925;BME280;61070;50.794;7.054;2023-06-22T10:33:16;100763.25;;;25.97;78.92
72925;BME280;61070;50.794;7.054;2023-06-22T10:35:42;100763.63;;;25.80;80.11
72925;BME280;61070;50.794;7.054;2023-06-22T10:38:07;100773.44;;;25.70;79.87
72925;BME280;61070;50.794;7.054;2023-06-22T10:40:33;100775.47;;;25.66;82.90
72925;BME280;61070;50.794;7.054;2023-06-22T10:42:58;100769.13;;;25.54;89.15
72925;BME280;61070;50.794;7.054;2023-06-22T10:45:24;100768.78;;;25.46;89.23
72925;BME280;61070;50.794;7.054;2023-06-22T10:47:49;100761.88;;;25.42;90.35
72925;BME280;61070;50.794;7.054;2023-06-22T10:50:14;100761.56;;;25.34;93.11
72925;BME280;61070;50.794;7.054;2023-06-22T10:52:40;100758.22;;;25.31;97.18
72925;BME280;61070;50.794;7.054;2023-06-22T10:55:07;100772.31;;;25.10;96.06
72925;BME280;61070;50.794;7.054;2023-06-22T10:57:33;100805.81;;;24.84;98.23
72925;BME280;61070;50.794;7.054;2023-06-22T10:59:58;100829.38;;;24.56;100.00
72925;BME280;61070;50.794;7.054;2023-06-22T11:02:24;100818.78;;;23.85;100.00
72925;BME280;61070;50.794;7.054;2023-06-22T11:04:50;100786.16;;;23.17;100.00
72925;BME280;61070;50.794;7.054;2023-06-22T11:07:15;100757.72;;;22.67;100.00
72925;BME280;61070;50.794;7.054;2023-06-22T11:09:43;100751.94;;;22.59;100.00
72925;BME280;61070;50.794;7.054;2023-06-22T11:12:08;100739.91;;;22.34;100.00
72925;BME280;61070;50.794;7.054;2023-06-22T11:14:34;100760.00;;;22.45;100.00
72925;BME280;61070;50.794;7.054;2023-06-22T11:16:59;100775.28;;;22.74;100.00
72925;BME280;61070;50.794;7.054;2023-06-22T11:19:24;100793.31;;;22.89;100.00
72925;BME280;61070;50.794;7.054;2023-06-22T11:21:50;100764.81;;;22.98;100.00
72925;BME280;61070;50.794;7.054;2023-06-22T11:24:16;100709.78;;;22.56;100.00
72925;BME280;61070;50.794;7.054;2023-06-22T11:26:41;100682.28;;;22.64;100.00
72925;BME280;61070;50.794;7.054;2023-06-22T11:29:07;100672.66;;;22.60;100.00
72925;BME280;61070;50.794;7.054;2023-06-22T11:31:34;100662.03;;;22.71;100.00
72925;BME280;61070;50.794;7.054;2023-06-22T11:34:00;100653.84;;;22.73;100.00
72925;BME280;61070;50.794;7.054;2023-06-22T11:36:26;100660.72;;;22.92;100.00
72925;BME280;61070;50.794;7.054;2023-06-22T11:38:51;100665.16;;;22.93;100.00
72925;BME280;61070;50.794;7.054;2023-06-22T11:41:17;100660.78;;;23.05;100.00
72925;BME280;61070;50.794;7.054;2023-06-22T11:43:42;100664.97;;;23.79;100.00
72925;BME280;61070;50.794;7.054;2023-06-22T11:46:07;100677.00;;;24.00;100.00
72925;BME280;61070;50.794;7.054;2023-06-22T11:48:33;100675.13;;;24.28;100.00
72925;BME280;61070;50.794;7.054;2023-06-22T11:50:58;100666.53;;;24.61;100.00
72925;BME280;61070;50.794;7.054;2023-06-22T11:53:24;100661.16;;;25.10;100.00
72925;BME280;61070;50.794;7.054;2023-06-22T11:55:50;100647.13;;;25.29;100.00
72925;BME280;61070;50.794;7.054;2023-06-22T11:58:15;100626.16;;;25.07;100.00
72925;BME280;61070;50.794;7.054;2023-06-22T12:00:41;100627.16;;;24.81;100.00
72925;BME280;61070;50.794;7.054;2023-06-22T12:03:07;100612.75;;;24.67;100.00
72925;BME280;61070;50.794;7.054;2023-06-22T12:05:32;100612.34;;;24.48;100.00
72925;BME280;61070;50.794;7.054;2023-06-22T12:07:57;100604.53;;;24.44;100.00
72925;BME280;61070;50.794;7.054;2023-06-22T12:10:25;100588.84;;;24.36;100.00
72925;BME280;61070;50.794;7.054;2023-06-22T12:12:50;100586.34;;;24.33;100.00
72925;BME280;61070;50.794;7.054;2023-06-22T12:15:16;100592.41;;;24.36;100.00
72925;BME280;61070;50.794;7.054;2023-06-22T12:17:41;100593.19;;;24.38;100.00
72925;BME280;61070;50.794;7.054;2023-06-22T12:20:07;100591.31;;;24.26;100.00
72925;BME280;61070;50.794;7.054;2023-06-22T12:22:33;100581.34;;;24.27;100.00
72925;BME280;61070;50.794;7.054;2023-06-22T12:24:59;100571.25;;;24.29;100.00
72925;BME280;61070;50.794;7.054;2023-06-22T12:27:25;100568.06;;;24.36;100.00
72925;BME280;61070;50.794;7.054;2023-06-22T12:29:50;100570.50;;;24.52;100.00
72925;BME280;61070;50.794;7.054;2023-06-22T12:32:15;100561.78;;;24.85;100.00
72925;BME280;61070;50.794;7.054;2023-06-22T12:34:42;100559.34;;;25.06;100.00
72925;BME280;61070;50.794;7.054;2023-06-22T12:37:07;100564.91;;;25.64;100.00
72925;BME280;61070;50.794;7.054;2023-06-22T12:39:33;100551.09;;;25.67;94.81
72925;BME280;61070;50.794;7.054;2023-06-22T12:41:58;100550.44;;;25.52;95.14
72925;BME280;61070;50.794;7.054;2023-06-22T12:44:23;100547.97;;;25.73;95.51
72925;BME280;61070;50.794;7.054;2023-06-22T12:46:49;100542.41;;;25.74;92.55
72925;BME280;61070;50.794;7.054;2023-06-22T12:49:14;100545.44;;;25.94;90.25
72925;BME280;61070;50.794;7.054;2023-06-22T12:51:41;100537.66;;;26.00;89.58